createdAt,value
2023-01-20T00:02:03.407Z,2.30
2023-01-20T00:04:49.825Z,2.30
2023-01-20T00:07:36.114Z,2.20
2023-01-20T00:10:25.409Z,2.40
2023-01-20T00:13:11.285Z,2.10
2023-01-20T00:15:57.299Z,2.30
2023-01-20T00:18:43.775Z,2.60
2023-01-20T00:21:30.145Z,2.10
2023-01-20T00:24:16.297Z,2.10
2023-01-20T00:27:04.788Z,2.50
2023-01-20T00:29:56.142Z,2.10
2023-01-20T00:32:44.856Z,2.00
2023-01-20T00:35:30.815Z,2.20
2023-01-20T00:38:17.718Z,2.00
2023-01-20T00:41:03.947Z,2.00
2023-01-20T00:43:50.387Z,2.00
2023-01-20T00:46:36.570Z,2.00
2023-01-20T00:49:22.745Z,1.90
2023-01-20T00:52:08.608Z,1.90
2023-01-20T00:54:54.467Z,1.90
2023-01-20T00:57:40.310Z,1.90
2023-01-20T01:00:26.361Z,1.80
2023-01-20T01:03:12.838Z,1.80
2023-01-20T01:06:10.840Z,1.70
2023-01-20T01:08:57.165Z,1.70
2023-01-20T01:11:43.542Z,1.70
2023-01-20T01:14:32.193Z,1.70
2023-01-20T01:17:18.263Z,1.70
2023-01-20T01:20:05.772Z,1.70
2023-01-20T01:22:52.661Z,1.70
2023-01-20T01:25:39.045Z,1.70
2023-01-20T01:28:25.160Z,1.70
2023-01-20T01:31:11.137Z,1.80
2023-01-20T01:33:56.930Z,1.70
2023-01-20T01:36:42.787Z,1.70
2023-01-20T01:39:28.665Z,1.70
2023-01-20T01:42:19.430Z,1.70
2023-01-20T01:45:12.188Z,1.80
2023-01-20T01:48:09.709Z,1.90
2023-01-20T01:51:05.969Z,1.90
2023-01-20T01:54:13.809Z,2.00
2023-01-20T01:57:03.255Z,2.10
2023-01-20T01:59:49.050Z,2.00
2023-01-20T02:02:36.102Z,2.10
2023-01-20T02:05:22.898Z,2.20
2023-01-20T02:08:09.522Z,2.20
2023-01-20T02:10:55.838Z,2.20
2023-01-20T02:13:44.809Z,2.20
2023-01-20T02:16:48.973Z,2.20
2023-01-20T02:20:19.872Z,2.30
2023-01-20T02:23:33.119Z,2.30
2023-01-20T02:26:45.197Z,2.30
2023-01-20T02:29:55.611Z,2.20
2023-01-20T02:33:05.860Z,2.20
2023-01-20T02:35:59.939Z,2.20
2023-01-20T02:39:11.270Z,2.10
2023-01-20T02:42:26.826Z,2.10
2023-01-20T02:45:17.149Z,2.10
2023-01-20T02:48:27.765Z,2.00
2023-01-20T02:51:19.099Z,1.90
2023-01-20T02:54:12.030Z,1.90
2023-01-20T02:57:02.173Z,1.80
2023-01-20T02:59:52.983Z,1.80
2023-01-20T03:02:40.651Z,1.80
2023-01-20T03:05:31.460Z,1.70
2023-01-20T03:08:18.896Z,1.70
2023-01-20T03:11:07.880Z,1.70
2023-01-20T03:14:11.301Z,1.70
2023-01-20T03:16:57.493Z,1.60
2023-01-20T03:19:43.855Z,1.70
2023-01-20T03:22:30.757Z,1.50
2023-01-20T03:25:19.728Z,1.50
2023-01-20T03:28:06.025Z,1.50
2023-01-20T03:30:55.839Z,1.80
2023-01-20T03:33:43.570Z,1.50
2023-01-20T03:36:31.343Z,1.50
2023-01-20T03:39:17.712Z,1.50
2023-01-20T03:42:16.627Z,1.50
2023-01-20T03:45:28.584Z,1.50
2023-01-20T03:48:33.911Z,1.50
2023-01-20T03:51:28.548Z,1.60
2023-01-20T03:54:20.958Z,1.50
2023-01-20T03:57:14.795Z,1.60
2023-01-20T04:00:04.079Z,1.60
2023-01-20T04:03:00.899Z,1.60
2023-01-20T04:05:49.167Z,1.60
2023-01-20T04:08:40.965Z,1.60
2023-01-20T04:11:28.030Z,1.60
2023-01-20T04:14:13.939Z,1.60
2023-01-20T04:17:00.182Z,1.60
2023-01-20T04:19:46.199Z,1.60
2023-01-20T04:22:42.639Z,1.80
2023-01-20T04:25:31.025Z,1.60
2023-01-20T04:28:17.066Z,1.60
2023-01-20T04:31:03.365Z,1.60
2023-01-20T04:33:49.801Z,1.60
2023-01-20T04:36:36.581Z,1.60
2023-01-20T04:39:23.540Z,1.60
2023-01-20T04:42:13.032Z,1.60
2023-01-20T04:44:59.130Z,1.60
2023-01-20T04:47:45.392Z,1.60
2023-01-20T04:50:31.695Z,1.60
2023-01-20T04:53:19.218Z,1.60
2023-01-20T04:56:10.805Z,1.60
2023-01-20T04:58:59.678Z,1.50
2023-01-20T05:01:46.105Z,1.50
2023-01-20T05:04:32.567Z,1.50
2023-01-20T05:07:18.490Z,1.50
2023-01-20T05:10:04.802Z,1.50
2023-01-20T05:12:51.441Z,1.50
2023-01-20T05:15:40.169Z,1.50
2023-01-20T05:18:26.650Z,1.50
2023-01-20T05:21:12.617Z,1.50
2023-01-20T05:24:01.921Z,1.50
2023-01-20T05:26:48.044Z,1.40
2023-01-20T05:29:34.386Z,1.50
2023-01-20T05:32:20.186Z,1.40
2023-01-20T05:35:06.764Z,1.40
2023-01-20T05:37:54.762Z,1.40
2023-01-20T05:40:40.830Z,1.40
2023-01-20T05:43:27.240Z,1.40
2023-01-20T05:46:13.922Z,1.30
2023-01-20T05:49:00.158Z,1.30
2023-01-20T05:51:46.582Z,1.30
2023-01-20T05:54:33.056Z,1.30
2023-01-20T05:57:19.482Z,1.30
2023-01-20T06:00:08.935Z,1.30
2023-01-20T06:02:54.896Z,1.30
2023-01-20T06:05:41.246Z,1.30
2023-01-20T06:08:27.214Z,1.30
2023-01-20T06:11:14.782Z,1.30
2023-01-20T06:14:00.601Z,1.30
2023-01-20T06:16:47.037Z,1.20
2023-01-20T06:19:35.273Z,1.30
2023-01-20T06:22:21.534Z,1.30
2023-01-20T06:25:07.831Z,1.20
2023-01-20T06:27:53.792Z,1.20
2023-01-20T06:30:43.162Z,1.20
2023-01-20T06:33:30.044Z,1.30
2023-01-20T06:36:17.624Z,1.40
2023-01-20T06:39:04.216Z,1.70
2023-01-20T06:41:50.460Z,1.30
2023-01-20T06:44:36.389Z,1.30
2023-01-20T06:47:22.451Z,1.30
2023-01-20T06:50:08.865Z,1.30
2023-01-20T06:52:55.846Z,1.30
2023-01-20T06:55:43.123Z,1.30
2023-01-20T06:58:31.237Z,1.30
2023-01-20T07:01:26.528Z,1.30
2023-01-20T07:04:16.125Z,1.30
2023-01-20T07:07:02.153Z,1.30
2023-01-20T07:09:48.092Z,1.30
2023-01-20T07:12:37.222Z,1.30
2023-01-20T07:15:23.122Z,1.40
2023-01-20T07:18:09.624Z,1.30
2023-01-20T07:20:56.365Z,1.30
2023-01-20T07:23:46.549Z,1.30
2023-01-20T07:26:36.474Z,1.30
2023-01-20T07:29:22.607Z,1.30
2023-01-20T07:32:10.983Z,1.30
2023-01-20T07:34:56.895Z,1.30
2023-01-20T07:37:45.479Z,1.40
2023-01-20T07:40:31.602Z,1.30
2023-01-20T07:43:17.620Z,1.40
2023-01-20T07:46:05.199Z,1.40
2023-01-20T07:48:53.080Z,1.40
2023-01-20T07:51:39.841Z,1.40
2023-01-20T07:54:26.150Z,1.40
2023-01-20T07:57:17.711Z,1.40
2023-01-20T08:00:04.811Z,1.40
2023-01-20T08:02:53.477Z,1.40
2023-01-20T08:05:39.446Z,1.50
2023-01-20T08:08:25.481Z,1.50
2023-01-20T08:11:13.816Z,1.40
2023-01-20T08:13:59.917Z,1.40
2023-01-20T08:16:46.021Z,1.50
2023-01-20T08:19:32.184Z,1.80
2023-01-20T08:22:18.186Z,1.80
2023-01-20T08:25:04.536Z,1.50
2023-01-20T08:27:50.564Z,1.50
2023-01-20T08:30:39.691Z,1.50
2023-01-20T08:33:26.087Z,1.60
2023-01-20T08:36:15.277Z,1.50
2023-01-20T08:39:04.043Z,1.60
2023-01-20T08:41:50.687Z,1.60
2023-01-20T08:44:37.055Z,1.60
2023-01-20T08:47:24.620Z,1.70
2023-01-20T08:50:13.021Z,1.70
2023-01-20T08:52:59.361Z,1.70
2023-01-20T08:55:45.417Z,1.70
2023-01-20T08:58:31.799Z,1.70
2023-01-20T09:01:21.378Z,1.80
2023-01-20T09:04:08.035Z,1.80
2023-01-20T09:06:53.993Z,1.90
2023-01-20T09:09:40.015Z,1.90
2023-01-20T09:12:26.573Z,1.90
2023-01-20T09:15:13.302Z,2.00
2023-01-20T09:17:59.661Z,2.10
2023-01-20T09:20:45.647Z,2.00
2023-01-20T09:23:31.364Z,2.10
2023-01-20T09:26:33.494Z,2.10
2023-01-20T09:29:21.236Z,2.60
2023-01-20T09:32:10.913Z,2.40
2023-01-20T09:34:59.941Z,2.70
2023-01-20T09:38:04.502Z,2.30
2023-01-20T09:41:56.546Z,2.40
2023-01-20T09:44:46.964Z,2.50
2023-01-20T09:47:43.527Z,2.90
2023-01-20T09:51:09.708Z,2.60
2023-01-20T09:54:28.124Z,2.70
2023-01-20T09:57:17.283Z,2.70
2023-01-20T10:00:17.285Z,3.10
2023-01-20T10:03:18.357Z,2.80
2023-01-20T10:06:16.432Z,3.30
2023-01-20T10:09:28.676Z,2.90
2023-01-20T10:12:39.152Z,3.00
2023-01-20T10:15:32.039Z,3.00
2023-01-20T10:18:22.289Z,3.10
2023-01-20T10:21:26.053Z,3.30
2023-01-20T10:24:30.948Z,3.20
2023-01-20T10:27:17.126Z,3.30
2023-01-20T10:30:10.472Z,3.40
2023-01-20T10:33:25.680Z,3.40
2023-01-20T10:36:30.827Z,3.40
2023-01-20T10:39:29.866Z,3.50
2023-01-20T10:42:18.454Z,4.00
2023-01-20T10:45:14.108Z,3.60
2023-01-20T10:48:27.385Z,3.60
2023-01-20T10:51:34.837Z,3.70
2023-01-20T10:54:33.381Z,3.80
2023-01-20T10:57:20.458Z,3.80
2023-01-20T11:00:24.509Z,3.90
2023-01-20T11:03:15.699Z,3.90
2023-01-20T11:06:02.943Z,3.90
2023-01-20T11:08:49.644Z,4.00
2023-01-20T11:11:37.386Z,4.10
2023-01-20T11:14:26.090Z,4.10
2023-01-20T11:17:17.295Z,4.20
2023-01-20T11:20:06.853Z,4.20
2023-01-20T11:22:55.643Z,4.20
2023-01-20T11:25:41.812Z,4.30
2023-01-20T11:28:35.000Z,4.50
2023-01-20T11:31:33.027Z,4.40
2023-01-20T11:34:26.699Z,4.40
2023-01-20T11:37:18.858Z,4.50
2023-01-20T11:40:25.572Z,4.50
2023-01-20T11:43:31.693Z,4.50
2023-01-20T11:46:40.385Z,4.60
2023-01-20T11:49:26.556Z,4.60
2023-01-20T11:52:20.972Z,4.70
2023-01-20T11:55:25.200Z,4.80
2023-01-20T11:58:18.021Z,4.80
2023-01-20T12:01:06.924Z,4.90
2023-01-20T12:04:02.071Z,4.90
2023-01-20T12:06:58.239Z,4.90
2023-01-20T12:09:48.082Z,4.90
2023-01-20T12:12:41.992Z,5.00
2023-01-20T12:15:32.959Z,5.00
2023-01-20T12:18:50.366Z,5.20
2023-01-20T12:21:52.342Z,5.20
2023-01-20T12:25:10.227Z,5.20
2023-01-20T12:28:14.550Z,5.20
2023-01-20T12:31:06.204Z,5.40
2023-01-20T12:33:59.978Z,5.50
2023-01-20T12:37:10.702Z,5.70
2023-01-20T12:40:08.658Z,5.70
2023-01-20T12:43:16.710Z,5.80
2023-01-20T12:46:10.234Z,5.80
2023-01-20T12:49:16.628Z,5.80
2023-01-20T12:52:05.390Z,5.80
2023-01-20T12:55:17.325Z,5.80
2023-01-20T12:58:19.227Z,5.80
2023-01-20T13:01:20.220Z,5.90
2023-01-20T13:04:21.374Z,5.90
2023-01-20T13:07:36.862Z,5.90
2023-01-20T13:10:37.406Z,6.00
2023-01-20T13:13:56.973Z,6.00
2023-01-20T13:17:00.263Z,6.00
2023-01-20T13:19:49.425Z,6.00
2023-01-20T13:22:38.748Z,6.10
2023-01-20T13:25:26.081Z,6.10
2023-01-20T13:28:24.760Z,6.10
2023-01-20T13:31:29.873Z,6.20
2023-01-20T13:34:22.337Z,6.20
2023-01-20T13:37:33.442Z,6.20
2023-01-20T13:40:39.248Z,6.30
2023-01-20T13:43:28.503Z,6.30
2023-01-20T13:46:35.199Z,6.30
2023-01-20T13:49:28.570Z,6.30
2023-01-20T13:52:14.775Z,6.30
2023-01-20T13:55:00.859Z,6.40
2023-01-20T13:57:46.642Z,6.40
2023-01-20T14:00:32.659Z,6.40
2023-01-20T14:03:30.786Z,6.40
2023-01-20T14:06:20.985Z,6.40
2023-01-20T14:09:11.878Z,6.50
2023-01-20T14:12:06.044Z,6.40
2023-01-20T14:14:54.457Z,6.50
2023-01-20T14:17:41.487Z,6.40
2023-01-20T14:20:29.123Z,6.50
2023-01-20T14:23:31.544Z,6.70
2023-01-20T14:26:29.693Z,6.80
2023-01-20T14:29:20.129Z,6.80
2023-01-20T14:32:28.936Z,6.70
2023-01-20T14:35:29.884Z,6.70
2023-01-20T14:38:19.620Z,6.60
2023-01-20T14:41:05.807Z,6.70
2023-01-20T14:43:51.746Z,6.80
2023-01-20T14:46:39.786Z,6.90
2023-01-20T14:49:35.546Z,6.90
2023-01-20T14:52:29.068Z,7.00
2023-01-20T14:55:29.056Z,6.90
2023-01-20T14:58:17.796Z,6.90
2023-01-20T15:01:08.720Z,6.90
2023-01-20T15:04:00.725Z,6.80
2023-01-20T15:07:02.230Z,6.70
2023-01-20T15:09:56.455Z,6.70
2023-01-20T15:12:48.500Z,6.60
2023-01-20T15:15:34.466Z,6.60
2023-01-20T15:18:23.200Z,6.50
2023-01-20T15:21:19.608Z,6.50
2023-01-20T15:24:30.249Z,6.50
2023-01-20T15:27:35.761Z,6.50
2023-01-20T15:30:27.293Z,6.50
2023-01-20T15:33:13.375Z,6.50
2023-01-20T15:36:00.770Z,6.40
2023-01-20T15:38:51.499Z,6.40
2023-01-20T15:41:37.893Z,6.40
2023-01-20T15:44:26.010Z,6.40
2023-01-20T15:47:18.991Z,6.30
2023-01-20T15:50:20.788Z,6.30
2023-01-20T15:53:06.961Z,6.30
2023-01-20T15:55:53.063Z,6.30
2023-01-20T15:58:39.370Z,6.30
2023-01-20T16:01:28.731Z,6.30
2023-01-20T16:04:15.393Z,6.20
2023-01-20T16:07:01.494Z,6.60
2023-01-20T16:09:47.473Z,6.30
2023-01-20T16:12:33.812Z,6.20
2023-01-20T16:15:20.444Z,6.20
2023-01-20T16:18:06.792Z,6.20
2023-01-20T16:20:52.935Z,6.20
2023-01-20T16:23:39.820Z,6.10
2023-01-20T16:26:28.571Z,6.20
2023-01-20T16:29:14.997Z,6.20
2023-01-20T16:32:03.404Z,6.20
2023-01-20T16:34:49.683Z,6.10
2023-01-20T16:37:36.249Z,6.10
2023-01-20T16:40:24.531Z,6.00
2023-01-20T16:43:12.601Z,5.90
2023-01-20T16:45:58.887Z,5.90
2023-01-20T16:48:45.413Z,5.90
2023-01-20T16:51:32.469Z,5.80
2023-01-20T16:54:18.791Z,5.70
2023-01-20T16:57:05.203Z,5.70
2023-01-20T16:59:51.057Z,5.60
2023-01-20T17:02:39.100Z,5.60
2023-01-20T17:05:27.266Z,5.60
2023-01-20T17:08:13.385Z,5.50
2023-01-20T17:10:59.310Z,5.50
2023-01-20T17:13:48.491Z,5.50
2023-01-20T17:16:34.637Z,5.40
2023-01-20T17:19:21.120Z,5.30
2023-01-20T17:22:07.582Z,5.30
2023-01-20T17:24:54.100Z,5.30
2023-01-20T17:27:42.389Z,5.30
2023-01-20T17:30:28.612Z,5.30
2023-01-20T17:33:14.841Z,5.40
2023-01-20T17:36:04.216Z,5.40
2023-01-20T17:38:50.299Z,5.40
2023-01-20T17:41:36.792Z,5.50
2023-01-20T17:44:23.644Z,5.40
2023-01-20T17:47:12.670Z,5.50
2023-01-20T17:49:58.961Z,5.60
2023-01-20T17:52:44.891Z,5.60
2023-01-20T17:55:30.777Z,5.50
2023-01-20T17:58:16.749Z,5.50
2023-01-20T18:01:20.883Z,5.60
2023-01-20T18:04:10.338Z,5.60
2023-01-20T18:06:56.271Z,5.60
2023-01-20T18:09:43.116Z,5.60
2023-01-20T18:12:29.735Z,5.60
2023-01-20T18:15:15.709Z,5.60
2023-01-20T18:18:02.351Z,5.60
2023-01-20T18:20:48.213Z,5.80
2023-01-20T18:23:34.248Z,5.60
2023-01-20T18:26:22.267Z,5.60
2023-01-20T18:29:12.164Z,5.60
2023-01-20T18:31:58.951Z,5.60
2023-01-20T18:34:45.031Z,5.70
2023-01-20T18:37:31.444Z,5.60
2023-01-20T18:40:17.806Z,5.60
2023-01-20T18:43:04.086Z,5.60
2023-01-20T18:45:53.447Z,5.60
2023-01-20T18:48:47.409Z,5.60
2023-01-20T18:51:37.859Z,5.60
2023-01-20T18:54:27.093Z,5.60
2023-01-20T18:57:18.573Z,5.50
2023-01-20T19:00:04.916Z,5.40
2023-01-20T19:02:52.255Z,5.50
2023-01-20T19:05:38.345Z,5.40
2023-01-20T19:08:25.064Z,5.30
2023-01-20T19:11:17.695Z,5.20
2023-01-20T19:14:04.050Z,5.20
2023-01-20T19:16:50.186Z,5.10
2023-01-20T19:19:36.665Z,5.00
2023-01-20T19:22:23.060Z,4.90
2023-01-20T19:25:09.571Z,4.80
2023-01-20T19:27:55.353Z,4.80
2023-01-20T19:30:41.666Z,4.70
2023-01-20T19:33:28.609Z,4.70
2023-01-20T19:36:16.439Z,4.60
2023-01-20T19:39:02.648Z,4.60
2023-01-20T19:41:48.754Z,4.60
2023-01-20T19:44:34.672Z,4.60
2023-01-20T19:47:20.675Z,4.70
2023-01-20T19:50:07.442Z,4.80
2023-01-20T19:52:53.276Z,4.80
2023-01-20T19:55:39.222Z,4.80
2023-01-20T19:58:25.064Z,4.90
2023-01-20T20:01:22.548Z,4.90
2023-01-20T20:04:11.381Z,4.90
2023-01-20T20:06:58.049Z,5.00
2023-01-20T20:09:43.977Z,5.00
2023-01-20T20:12:31.034Z,5.00
2023-01-20T20:15:22.901Z,5.10
2023-01-20T20:18:09.824Z,5.00
2023-01-20T20:20:56.165Z,5.10
2023-01-20T20:23:44.982Z,4.80
2023-01-20T20:26:33.547Z,5.20
2023-01-20T20:29:20.239Z,4.80
2023-01-20T20:32:06.633Z,4.60
2023-01-20T20:34:52.712Z,4.50
2023-01-20T20:37:38.609Z,4.50
2023-01-20T20:40:25.334Z,4.40
2023-01-20T20:43:11.318Z,4.30
2023-01-20T20:46:04.186Z,4.30
2023-01-20T20:48:53.745Z,4.20
2023-01-20T20:51:40.164Z,4.20
2023-01-20T20:54:26.117Z,4.10
2023-01-20T20:57:12.097Z,4.10
2023-01-20T21:00:01.858Z,4.00
2023-01-20T21:02:48.203Z,3.90
2023-01-20T21:05:34.876Z,3.90
2023-01-20T21:08:21.354Z,3.90
2023-01-20T21:11:13.111Z,3.80
2023-01-20T21:13:59.225Z,4.10
2023-01-20T21:16:45.891Z,3.80
2023-01-20T21:19:32.105Z,3.70
2023-01-20T21:22:18.114Z,3.70
2023-01-20T21:25:04.604Z,3.60
2023-01-20T21:27:51.195Z,3.60
2023-01-20T21:30:38.222Z,3.60
2023-01-20T21:33:24.690Z,3.60
2023-01-20T21:36:12.462Z,3.60
2023-01-20T21:39:00.245Z,3.40
2023-01-20T21:41:46.586Z,3.50
2023-01-20T21:44:34.043Z,3.50
2023-01-20T21:47:20.316Z,3.50
2023-01-20T21:50:29.584Z,3.80
2023-01-20T21:53:18.878Z,3.50
2023-01-20T21:56:05.107Z,3.50
2023-01-20T21:58:51.440Z,3.50
2023-01-20T22:01:38.737Z,3.40
2023-01-20T22:04:34.179Z,3.40
2023-01-20T22:07:21.506Z,3.30
2023-01-20T22:10:11.052Z,3.30
2023-01-20T22:12:58.000Z,3.30
2023-01-20T22:15:43.976Z,3.20
2023-01-20T22:18:35.322Z,3.20
2023-01-20T22:21:25.586Z,3.20
2023-01-20T22:24:12.227Z,3.20
2023-01-20T22:26:58.971Z,3.20
2023-01-20T22:29:49.331Z,3.20
2023-01-20T22:32:35.422Z,3.20
2023-01-20T22:35:24.286Z,3.30
2023-01-20T22:38:10.522Z,3.40
2023-01-20T22:41:06.447Z,3.20
2023-01-20T22:44:03.152Z,3.50
2023-01-20T22:50:38.827Z,3.60
2023-01-20T22:53:24.890Z,4.10
2023-01-20T22:56:14.101Z,3.70
2023-01-20T22:59:08.234Z,3.80
2023-01-20T23:02:01.034Z,3.80
2023-01-20T23:04:51.614Z,3.90
2023-01-20T23:07:40.682Z,3.90
2023-01-20T23:10:45.387Z,3.90
2023-01-20T23:13:31.669Z,4.40
2023-01-20T23:16:22.209Z,4.00
2023-01-20T23:19:09.070Z,4.00
2023-01-20T23:21:55.438Z,4.40
2023-01-20T23:24:41.418Z,4.10
2023-01-20T23:27:27.744Z,4.10
2023-01-20T23:30:17.386Z,4.10
2023-01-20T23:33:03.698Z,4.10
2023-01-20T23:35:49.578Z,4.10
2023-01-20T23:38:36.111Z,4.10
2023-01-20T23:41:22.539Z,4.10
2023-01-20T23:44:09.881Z,4.10
2023-01-20T23:46:59.055Z,4.10
2023-01-20T23:49:45.011Z,4.10
2023-01-20T23:52:30.829Z,4.10
2023-01-20T23:55:16.969Z,4.10
2023-01-20T23:58:03.787Z,4.10
